Time;durP1;ratioP1;P1;durP2;ratioP2;P2;SDS_P1;SDS_P2;PMS_P1;PMS_P2;Temp;Humidity;BMP_temperature;BMP_pressure;BME280_temperature;BME280_humidity;BME280_pressure;Samples;Min_cycle;Max_cycle;Signal;HPM_P1;HPM_P2
2021/09/25 00:01:12;;;;;;;7.40;5.83;;;17.10;99.90;;;;;;5076987;28;20177;-63
2021/09/25 00:03:37;;;;;;;6.27;4.70;;;17.10;99.90;;;;;;5076636;28;20248;-63
2021/09/25 00:06:03;;;;;;;7.33;5.60;;;17.10;99.90;;;;;;5076776;28;20524;-63
2021/09/25 00:08:29;;;;;;;6.37;5.20;;;17.10;99.90;;;;;;5058711;28;20231;-63
2021/09/25 00:10:55;;;;;;;5.57;4.83;;;17.10;99.90;;;;;;5076732;28;20632;-63
2021/09/25 00:13:20;;;;;;;7.40;6.00;;;17.10;99.90;;;;;;5058646;28;20176;-63
2021/09/25 00:15:46;;;;;;;6.67;5.97;;;17.10;99.90;;;;;;5076436;28;20401;-64
2021/09/25 00:18:12;;;;;;;7.23;6.27;;;17.10;99.90;;;;;;5076400;28;20184;-63
2021/09/25 00:20:38;;;;;;;8.37;5.87;;;17.10;99.90;;;;;;5076514;28;20204;-63
2021/09/25 00:23:04;;;;;;;9.03;5.93;;;17.10;99.90;;;;;;5058369;28;20834;-63
2021/09/25 00:25:30;;;;;;;7.73;5.67;;;17.10;99.90;;;;;;5076332;28;20426;-63
2021/09/25 00:27:55;;;;;;;6.23;5.40;;;17.10;99.90;;;;;;5076347;28;20409;-63
2021/09/25 00:30:21;;;;;;;6.70;5.20;;;17.10;99.90;;;;;;5076286;28;20594;-63
2021/09/25 00:32:47;;;;;;;6.83;5.63;;;17.10;99.90;;;;;;5076159;28;20542;-63
2021/09/25 00:35:13;;;;;;;6.47;5.30;;;17.10;99.90;;;;;;5058206;28;20201;-63
2021/09/25 00:37:39;;;;;;;7.10;5.80;;;17.00;99.90;;;;;;5076648;28;20181;-63
2021/09/25 00:40:06;;;;;;;6.50;5.47;;;17.00;99.90;;;;;;5076061;28;20957;-63
2021/09/25 00:42:32;;;;;;;7.90;5.13;;;17.00;99.90;;;;;;5058142;28;20510;-64
2021/09/25 00:44:58;;;;;;;8.77;5.40;;;17.00;99.90;;;;;;5075909;28;20434;-63
2021/09/25 00:47:24;;;;;;;6.77;5.40;;;17.00;99.90;;;;;;5076463;28;20428;-63
2021/09/25 00:49:50;;;;;;;6.17;5.20;;;17.00;99.90;;;;;;5057870;28;20609;-64
2021/09/25 00:52:16;;;;;;;6.07;4.90;;;17.00;99.90;;;;;;5075832;28;20422;-63
2021/09/25 00:54:41;;;;;;;6.80;5.50;;;16.90;99.90;;;;;;5075708;28;20947;-64
2021/09/25 00:57:08;;;;;;;8.03;6.20;;;16.90;99.90;;;;;;5076233;28;20505;-64
2021/09/25 00:59:34;;;;;;;6.73;5.70;;;16.90;99.90;;;;;;5075664;28;20189;-63
2021/09/25 01:02:00;;;;;;;5.90;5.30;;;16.90;99.90;;;;;;5075606;28;20416;-63
2021/09/25 01:04:26;;;;;;;6.80;5.23;;;16.90;99.90;;;;;;5075030;28;20865;-63
2021/09/25 01:06:51;;;;;;;6.53;5.27;;;16.90;99.90;;;;;;5075971;28;20177;-63
2021/09/25 01:09:17;;;;;;;7.17;5.40;;;16.90;99.90;;;;;;5075477;28;20426;-63
2021/09/25 01:11:43;;;;;;;6.90;5.40;;;16.90;99.90;;;;;;5075790;28;20169;-63
2021/09/25 01:14:09;;;;;;;7.70;5.70;;;16.90;99.90;;;;;;5075383;28;20208;-63
2021/09/25 01:16:35;;;;;;;6.50;4.93;;;16.90;99.90;;;;;;5075320;28;20346;-63
2021/09/25 01:19:01;;;;;;;6.87;4.97;;;16.80;99.90;;;;;;5057342;28;20449;-63
2021/09/25 01:21:27;;;;;;;7.90;6.07;;;16.80;99.90;;;;;;5075605;28;20902;-63
2021/09/25 01:23:53;;;;;;;6.47;5.63;;;16.80;99.90;;;;;;5075099;28;20220;-63
2021/09/25 01:26:24;;;;;;;5.63;4.70;;;16.80;99.90;;;;;;5075422;28;20405;-63
2021/09/25 01:28:51;;;;;;;6.40;5.03;;;16.80;99.90;;;;;;5075130;28;20430;-63
2021/09/25 01:31:18;;;;;;;6.97;5.20;;;16.80;99.90;;;;;;5057184;28;20529;-63
2021/09/25 01:33:47;;;;;;;7.63;5.77;;;16.80;99.90;;;;;;5074986;28;20850;-63
2021/09/25 01:36:14;;;;;;;6.87;5.60;;;16.80;99.90;;;;;;5075242;28;20487;-63
2021/09/25 01:38:41;;;;;;;6.20;5.17;;;16.80;99.90;;;;;;5057102;28;20444;-63
2021/09/25 01:41:07;;;;;;;8.00;6.00;;;16.70;99.90;;;;;;5075137;28;20772;-63
2021/09/25 01:43:33;;;;;;;7.20;6.23;;;16.70;99.90;;;;;;5074761;28;20443;-63
2021/09/25 01:45:59;;;;;;;6.70;6.00;;;16.70;99.90;;;;;;5074906;28;20244;-63
2021/09/25 01:48:25;;;;;;;6.70;5.70;;;16.70;99.90;;;;;;5074909;28;20173;-63
2021/09/25 01:50:52;;;;;;;6.97;5.40;;;16.60;99.90;;;;;;5074755;28;20418;-63
2021/09/25 01:53:19;;;;;;;9.80;6.50;;;16.60;99.90;;;;;;5074654;28;20394;-63
2021/09/25 01:55:45;;;;;;;8.17;6.07;;;16.60;99.90;;;;;;5074882;28;20418;-63
2021/09/25 01:58:11;;;;;;;7.80;6.43;;;16.60;99.90;;;;;;5074512;28;20417;-63
2021/09/25 02:00:37;;;;;;;8.23;5.93;;;16.50;99.90;;;;;;5074679;28;20734;-63
2021/09/25 02:03:06;;;;;;;6.13;5.53;;;16.50;99.90;;;;;;5056484;28;20265;-63
2021/09/25 02:05:32;;;;;;;7.10;5.87;;;16.50;99.90;;;;;;5074310;28;20430;-63
2021/09/25 02:07:59;;;;;;;6.80;5.97;;;16.40;99.90;;;;;;5074393;28;20409;-63
2021/09/25 02:10:25;;;;;;;6.03;4.93;;;16.40;99.90;;;;;;5074267;28;20424;-63
2021/09/25 02:12:51;;;;;;;7.67;6.10;;;16.40;99.90;;;;;;5074311;28;20384;-63
2021/09/25 02:15:16;;;;;;;6.17;5.53;;;16.30;99.90;;;;;;5074281;28;20935;-63
2021/09/25 02:17:42;;;;;;;8.00;6.00;;;16.30;99.90;;;;;;5073167;28;20225;-63
2021/09/25 02:20:10;;;;;;;7.73;5.53;;;16.30;99.90;;;;;;5074112;28;20193;-63
2021/09/25 02:22:36;;;;;;;9.93;6.60;;;16.30;99.90;;;;;;5074645;28;20212;-63
2021/09/25 02:25:07;;;;;;;7.50;6.00;;;16.30;99.90;;;;;;5056070;28;20465;-63
2021/09/25 02:27:39;;;;;;;7.23;5.90;;;16.30;99.90;;;;;;5074671;28;20501;-63
2021/09/25 02:30:09;;;;;;;7.53;6.00;;;16.30;99.90;;;;;;5074031;28;20462;-63
2021/09/25 02:32:35;;;;;;;8.07;6.10;;;16.20;99.90;;;;;;5074547;28;20927;-63
2021/09/25 02:35:01;;;;;;;6.67;5.50;;;16.20;99.90;;;;;;5073902;28;20492;-63
2021/09/25 02:37:26;;;;;;;7.27;6.13;;;16.20;99.90;;;;;;5074558;28;20185;-63
2021/09/25 02:39:52;;;;;;;6.20;5.50;;;16.20;99.90;;;;;;5055939;28;20196;-63
2021/09/25 02:42:17;;;;;;;6.50;5.90;;;16.20;99.90;;;;;;5074256;28;20191;-63
2021/09/25 02:44:43;;;;;;;7.80;6.20;;;16.20;99.90;;;;;;5055833;28;20278;-63
2021/09/25 02:47:08;;;;;;;7.00;6.10;;;16.20;99.90;;;;;;5074336;28;20177;-63
2021/09/25 02:49:34;;;;;;;6.97;5.70;;;16.20;99.90;;;;;;5073799;28;20196;-63
2021/09/25 02:52:00;;;;;;;8.63;6.40;;;16.20;99.90;;;;;;5074099;28;20226;-63
2021/09/25 02:54:25;;;;;;;6.70;5.57;;;16.20;99.90;;;;;;5055662;28;20207;-63
2021/09/25 02:56:51;;;;;;;7.53;6.27;;;16.20;99.90;;;;;;5073691;28;20181;-63
2021/09/25 02:59:16;;;;;;;8.50;7.00;;;16.10;99.90;;;;;;5073635;28;20666;-63
2021/09/25 03:01:42;;;;;;;7.00;5.90;;;16.10;99.90;;;;;;5073924;28;20703;-63
2021/09/25 03:04:07;;;;;;;6.53;5.80;;;16.10;99.90;;;;;;5073573;28;20221;-63
2021/09/25 03:06:33;;;;;;;11.40;6.80;;;16.10;99.90;;;;;;5073591;28;20258;-63
2021/09/25 03:08:59;;;;;;;8.20;6.30;;;16.10;99.90;;;;;;5073566;28;20204;-63
2021/09/25 03:11:24;;;;;;;7.47;6.33;;;16.20;99.90;;;;;;5073883;28;20208;-63
2021/09/25 03:13:50;;;;;;;11.00;6.40;;;16.20;99.90;;;;;;5073453;28;20197;-63
2021/09/25 03:16:16;;;;;;;6.27;5.67;;;16.20;99.90;;;;;;5073242;28;20239;-63
2021/09/25 03:18:41;;;;;;;9.13;6.90;;;16.20;99.90;;;;;;5073500;28;20220;-63
2021/09/25 03:21:07;;;;;;;9.30;6.93;;;16.20;99.90;;;;;;5073643;28;20417;-63
2021/09/25 03:23:33;;;;;;;6.87;5.73;;;16.20;99.90;;;;;;5055425;28;20733;-63
2021/09/25 03:25:58;;;;;;;7.50;6.00;;;16.20;99.90;;;;;;5055487;28;20185;-63
2021/09/25 03:28:24;;;;;;;6.97;6.27;;;16.20;99.90;;;;;;5075196;28;20255;-63
2021/09/25 03:30:49;;;;;;;8.20;7.20;;;16.20;99.90;;;;;;5077500;28;20174;-63
2021/09/25 03:33:15;;;;;;;7.53;5.70;;;16.10;99.90;;;;;;5077479;28;20230;-63
2021/09/25 03:35:46;;;;;;;6.10;5.50;;;16.10;99.90;;;;;;5077444;28;20181;-63
2021/09/25 03:38:13;;;;;;;6.90;5.63;;;16.10;99.90;;;;;;5077311;28;20161;-63
2021/09/25 03:40:39;;;;;;;7.40;6.20;;;16.10;99.90;;;;;;5059405;28;20410;-63
2021/09/25 03:43:07;;;;;;;9.37;6.57;;;16.10;99.90;;;;;;5059135;28;20812;-63
2021/09/25 03:45:33;;;;;;;8.40;6.37;;;16.10;99.90;;;;;;5077212;28;20185;-63
2021/09/25 03:47:59;;;;;;;8.83;7.80;;;16.10;99.90;;;;;;5077101;28;20920;-63
2021/09/25 03:50:25;;;;;;;9.13;7.30;;;16.10;99.90;;;;;;5076929;28;20193;-63
2021/09/25 03:52:51;;;;;;;7.63;5.80;;;16.10;99.90;;;;;;5076968;28;20431;-64
2021/09/25 03:55:16;;;;;;;8.03;6.70;;;16.10;99.90;;;;;;5058980;28;20417;-63
2021/09/25 03:57:42;;;;;;;6.43;5.80;;;16.10;99.90;;;;;;5077386;28;20257;-63
2021/09/25 04:00:08;;;;;;;9.03;6.93;;;16.10;99.90;;;;;;5076752;28;20242;-63
2021/09/25 04:02:34;;;;;;;9.37;7.50;;;16.10;99.90;;;;;;5077396;28;20546;-63
2021/09/25 04:05:00;;;;;;;8.70;7.47;;;16.00;99.90;;;;;;5076692;28;20515;-63
2021/09/25 04:07:25;;;;;;;8.97;6.57;;;16.00;99.90;;;;;;5077157;28;20205;-63
2021/09/25 04:09:51;;;;;;;9.57;7.40;;;16.00;99.90;;;;;;5076578;28;20204;-63
2021/09/25 04:12:16;;;;;;;8.43;6.90;;;15.90;99.90;;;;;;5058763;28;20189;-63
2021/09/25 04:14:42;;;;;;;9.20;6.60;;;15.90;99.90;;;;;;5076517;28;20287;-63
2021/09/25 04:17:07;;;;;;;9.67;7.37;;;15.80;99.90;;;;;;5076644;28;20248;-63
2021/09/25 04:19:33;;;;;;;8.90;7.50;;;15.80;99.90;;;;;;5058483;28;20196;-63
2021/09/25 04:21:58;;;;;;;6.80;5.93;;;15.80;99.90;;;;;;5076392;28;20181;-63
2021/09/25 04:24:24;;;;;;;11.57;7.40;;;15.70;99.90;;;;;;5076298;28;20228;-63
2021/09/25 04:26:49;;;;;;;9.63;7.50;;;15.70;99.90;;;;;;5076681;28;20174;-63
2021/09/25 04:29:15;;;;;;;18.83;13.03;;;15.70;99.90;;;;;;5076284;28;20197;-63
2021/09/25 04:31:41;;;;;;;14.80;9.37;;;15.60;99.90;;;;;;5076591;28;20310;-63
2021/09/25 04:34:06;;;;;;;13.80;8.60;;;15.50;99.90;;;;;;5076198;28;20262;-63
2021/09/25 04:36:32;;;;;;;13.20;7.80;;;15.50;99.90;;;;;;5076420;28;20260;-63
2021/09/25 04:38:59;;;;;;;11.47;7.30;;;15.40;99.90;;;;;;5057720;28;20288;-63
2021/09/25 04:41:25;;;;;;;8.40;6.70;;;15.40;99.90;;;;;;5075988;28;20421;-63
2021/09/25 04:43:50;;;;;;;7.10;6.13;;;15.40;99.90;;;;;;5075924;28;20997;-63
2021/09/25 04:46:16;;;;;;;9.40;7.47;;;15.40;99.90;;;;;;5075986;28;20414;-63
2021/09/25 04:48:42;;;;;;;9.07;6.60;;;15.30;99.90;;;;;;5075977;28;20236;-63
2021/09/25 04:51:07;;;;;;;7.77;6.40;;;15.30;99.90;;;;;;5076169;28;20199;-63
2021/09/25 04:53:33;;;;;;;8.60;6.53;;;15.30;99.90;;;;;;5057871;28;20197;-63
2021/09/25 04:55:59;;;;;;;8.20;7.00;;;15.30;99.90;;;;;;5057837;28;20185;-63
2021/09/25 04:58:29;;;;;;;6.70;6.00;;;15.30;99.90;;;;;;5075740;28;20179;-63
2021/09/25 05:00:56;;;;;;;7.73;6.40;;;15.30;99.90;;;;;;5075870;28;20388;-63
2021/09/25 05:03:22;;;;;;;11.57;7.47;;;15.30;99.90;;;;;;5057597;28;20469;-63
2021/09/25 05:05:48;;;;;;;9.70;7.10;;;15.30;99.90;;;;;;5075659;28;20406;-63
2021/09/25 05:08:13;;;;;;;8.90;7.40;;;15.30;99.90;;;;;;5075561;28;20892;-63
2021/09/25 05:10:39;;;;;;;12.40;6.70;;;15.30;99.90;;;;;;5075576;28;20599;-63
2021/09/25 05:13:05;;;;;;;10.07;7.33;;;15.20;99.90;;;;;;5075469;28;20184;-63
2021/09/25 05:15:30;;;;;;;10.03;7.40;;;15.20;99.90;;;;;;5075364;28;20189;-63
2021/09/25 05:17:56;;;;;;;11.70;7.80;;;15.20;99.90;;;;;;5075498;28;20303;-63
2021/09/25 05:20:21;;;;;;;9.73;7.40;;;15.20;99.90;;;;;;5075181;28;20189;-63
2021/09/25 05:22:47;;;;;;;8.13;7.20;;;15.20;99.90;;;;;;5075336;28;20180;-63
2021/09/25 05:25:13;;;;;;;10.77;7.77;;;15.20;99.90;;;;;;5075262;28;20223;-63
2021/09/25 05:27:40;;;;;;;7.73;6.80;;;15.30;99.90;;;;;;5075741;28;20170;-63
2021/09/25 05:30:06;;;;;;;8.97;7.07;;;15.30;99.90;;;;;;5075271;28;20279;-63
2021/09/25 05:32:33;;;;;;;8.77;7.40;;;15.30;99.90;;;;;;5057448;28;20422;-63
2021/09/25 05:34:59;;;;;;;7.73;6.57;;;15.30;99.90;;;;;;5074977;28;20797;-63
2021/09/25 05:37:24;;;;;;;8.97;7.23;;;15.30;99.90;;;;;;5075493;28;20406;-63
2021/09/25 05:39:54;;;;;;;9.27;6.87;;;15.40;99.90;;;;;;5074937;28;20495;-63
2021/09/25 05:42:21;;;;;;;7.70;6.83;;;15.40;99.90;;;;;;5075400;28;20177;-63
2021/09/25 05:44:47;;;;;;;8.40;7.10;;;15.50;99.90;;;;;;5074710;28;20526;-63
2021/09/25 05:47:13;;;;;;;7.63;6.40;;;15.50;99.90;;;;;;5074747;28;20436;-63
2021/09/25 05:49:39;;;;;;;7.23;6.53;;;15.50;99.90;;;;;;5074805;28;20516;-63
2021/09/25 05:52:08;;;;;;;7.83;7.03;;;15.60;99.90;;;;;;5075050;28;20475;-63
2021/09/25 05:54:34;;;;;;;8.30;6.67;;;15.70;99.90;;;;;;5074687;28;20464;-63
2021/09/25 05:57:00;;;;;;;9.70;7.37;;;15.70;99.90;;;;;;5077071;28;20410;-63
2021/09/25 05:59:25;;;;;;;9.80;7.57;;;15.70;99.90;;;;;;5075553;28;20417;-64
2021/09/25 06:01:51;;;;;;;8.17;6.67;;;15.80;99.90;;;;;;5093219;28;20172;-63
2021/09/25 06:04:17;;;;;;;9.77;7.33;;;15.90;99.90;;;;;;5094331;28;20307;-63
2021/09/25 06:06:42;;;;;;;8.00;6.80;;;16.00;99.90;;;;;;5095037;28;20255;-63
2021/09/25 06:09:08;;;;;;;10.07;7.07;;;16.00;99.90;;;;;;5076573;28;20211;-63
2021/09/25 06:11:33;;;;;;;9.17;6.10;;;16.10;99.90;;;;;;5076621;28;20526;-63
2021/09/25 06:13:59;;;;;;;7.90;6.30;;;16.20;99.90;;;;;;5094446;28;20207;-63
2021/09/25 06:16:24;;;;;;;8.23;6.60;;;16.20;99.90;;;;;;5075739;28;20263;-63
2021/09/25 06:18:50;;;;;;;7.93;5.93;;;16.40;99.90;;;;;;5092302;28;20193;-63
2021/09/25 06:21:16;;;;;;;7.50;6.40;;;16.40;99.90;;;;;;5092551;28;20246;-63
2021/09/25 06:23:41;;;;;;;9.57;7.37;;;16.50;99.90;;;;;;5092391;28;20215;-63
2021/09/25 06:26:08;;;;;;;7.33;6.60;;;16.60;99.90;;;;;;5092398;28;20588;-63
2021/09/25 06:28:34;;;;;;;10.50;6.50;;;16.70;99.90;;;;;;5092255;28;20287;-63
2021/09/25 06:31:02;;;;;;;10.50;6.87;;;16.80;99.90;;;;;;5074091;28;20866;-63
2021/09/25 06:33:28;;;;;;;7.53;6.77;;;16.90;99.90;;;;;;5094363;28;20380;-63
2021/09/25 06:35:53;;;;;;;7.33;5.87;;;17.00;99.90;;;;;;5094224;28;20387;-63
2021/09/25 06:38:20;;;;;;;7.00;6.30;;;17.10;99.90;;;;;;5094211;28;20187;-66
2021/09/25 06:40:46;;;;;;;8.60;6.20;;;17.20;99.90;;;;;;5094185;28;20165;-64
2021/09/25 06:43:11;;;;;;;6.30;5.50;;;17.30;99.90;;;;;;5094042;28;20505;-63
2021/09/25 06:45:38;;;;;;;8.33;6.27;;;17.40;99.90;;;;;;5094163;28;20173;-63
2021/09/25 06:48:05;;;;;;;6.77;6.07;;;17.50;99.90;;;;;;5094031;28;20173;-64
2021/09/25 06:50:31;;;;;;;7.67;6.13;;;17.60;99.90;;;;;;5094024;28;20429;-63
2021/09/25 06:52:57;;;;;;;7.33;6.10;;;17.70;99.90;;;;;;5084655;28;20776;-63
2021/09/25 06:55:23;;;;;;;6.80;6.00;;;17.90;99.90;;;;;;5072906;28;20422;-64
2021/09/25 06:57:49;;;;;;;6.60;5.33;;;17.90;99.90;;;;;;5072426;28;20467;-63
2021/09/25 07:00:15;;;;;;;6.73;5.90;;;18.10;99.90;;;;;;5073659;28;20438;-63
2021/09/25 07:02:41;;;;;;;6.53;5.50;;;18.20;99.90;;;;;;5073031;28;20216;-63
2021/09/25 07:05:07;;;;;;;6.97;6.20;;;18.30;99.90;;;;;;5073620;28;20461;-63
2021/09/25 07:07:33;;;;;;;7.00;6.20;;;18.40;99.90;;;;;;5055905;28;20938;-63
2021/09/25 07:09:59;;;;;;;6.50;5.90;;;18.50;99.90;;;;;;5073521;28;20481;-63
2021/09/25 07:12:25;;;;;;;7.20;6.00;;;18.60;99.90;;;;;;5074088;28;20184;-63
2021/09/25 07:14:51;;;;;;;6.37;5.73;;;18.70;99.90;;;;;;5073560;28;20701;-63
2021/09/25 07:17:17;;;;;;;7.10;6.40;;;18.80;99.90;;;;;;5055419;28;20532;-63
2021/09/25 07:19:43;;;;;;;6.63;5.97;;;18.90;99.90;;;;;;5073496;28;20910;-63
2021/09/25 07:22:08;;;;;;;6.10;5.50;;;19.00;99.90;;;;;;5055708;28;20180;-63
2021/09/25 07:24:35;;;;;;;6.27;5.63;;;19.10;99.90;;;;;;5084338;28;20723;-63
2021/09/25 07:27:01;;;;;;;6.10;5.50;;;19.20;99.90;;;;;;5075048;28;20186;-64
2021/09/25 07:29:27;;;;;;;5.70;5.10;;;19.30;99.90;;;;;;5071873;28;20814;-63
2021/09/25 07:31:53;;;;;;;6.40;5.67;;;19.40;99.90;;;;;;5071766;28;20438;-63
2021/09/25 07:34:18;;;;;;;7.70;6.27;;;19.50;99.90;;;;;;5072941;28;20202;-63
2021/09/25 07:36:45;;;;;;;6.37;5.13;;;19.60;99.90;;;;;;5071811;28;20166;-63
2021/09/25 07:39:10;;;;;;;5.57;4.60;;;19.70;99.90;;;;;;5071783;28;20199;-63
2021/09/25 07:41:39;;;;;;;6.00;5.40;;;19.90;99.90;;;;;;5073315;28;20423;-63
2021/09/25 07:44:04;;;;;;;6.23;5.63;;;20.00;99.90;;;;;;5073134;28;20221;-64
2021/09/25 07:46:32;;;;;;;7.70;5.40;;;20.10;99.90;;;;;;5073036;28;20504;-63
2021/09/25 07:48:59;;;;;;;5.93;5.33;;;20.20;99.90;;;;;;5071436;28;20428;-64
2021/09/25 07:51:26;;;;;;;5.33;4.83;;;20.30;99.90;;;;;;5070155;28;20433;-64
2021/09/25 07:53:52;;;;;;;5.40;4.90;;;20.40;99.90;;;;;;5071232;28;20424;-63
2021/09/25 07:56:17;;;;;;;6.67;5.57;;;20.60;99.90;;;;;;5070196;28;20447;-63
2021/09/25 07:58:43;;;;;;;5.30;4.60;;;20.70;99.90;;;;;;5071728;28;20231;-64
2021/09/25 08:01:09;;;;;;;5.50;4.70;;;20.80;99.90;;;;;;5072155;28;20526;-63
2021/09/25 08:03:34;;;;;;;5.00;4.50;;;21.00;99.90;;;;;;5071463;28;20223;-64
2021/09/25 08:06:00;;;;;;;7.73;5.73;;;21.20;99.90;;;;;;5073149;28;20666;-64
2021/09/25 08:08:25;;;;;;;4.57;4.17;;;21.50;99.90;;;;;;5073074;28;20191;-63
2021/09/25 08:10:51;;;;;;;4.57;4.13;;;22.00;99.90;;;;;;5073121;28;20261;-63
2021/09/25 08:13:17;;;;;;;4.47;4.00;;;22.70;99.90;;;;;;5072964;28;20639;-63
2021/09/25 08:15:42;;;;;;;4.00;3.70;;;23.40;99.90;;;;;;5075225;28;20192;-64
2021/09/25 08:18:08;;;;;;;4.83;4.33;;;24.10;99.90;;;;;;5076762;28;20244;-64
2021/09/25 08:20:34;;;;;;;6.70;4.17;;;25.10;99.90;;;;;;5076526;28;20197;-63
2021/09/25 08:22:59;;;;;;;4.33;3.93;;;26.10;99.90;;;;;;5076353;28;20557;-64
2021/09/25 08:25:25;;;;;;;4.03;3.63;;;26.90;99.90;;;;;;5076299;28;20200;-64
2021/09/25 08:27:52;;;;;;;4.07;3.67;;;27.70;99.90;;;;;;5076404;28;20176;-64
2021/09/25 08:30:19;;;;;;;3.77;3.47;;;28.40;99.90;;;;;;5076300;28;20888;-64
2021/09/25 08:32:46;;;;;;;4.37;4.00;;;29.00;99.90;;;;;;5076343;28;20410;-64
2021/09/25 08:35:11;;;;;;;3.20;3.00;;;29.50;99.90;;;;;;5076181;28;20436;-64
2021/09/25 08:37:38;;;;;;;3.60;3.30;;;30.10;99.30;;;;;;5075170;28;20430;-64
2021/09/25 08:40:07;;;;;;;4.57;3.50;;;30.60;97.40;;;;;;5076037;28;20430;-65
2021/09/25 08:42:33;;;;;;;3.97;3.57;;;31.10;96.30;;;;;;5076707;28;20410;-64
2021/09/25 08:44:59;;;;;;;3.73;3.43;;;31.40;95.00;;;;;;5075922;28;20829;-64
2021/09/25 08:47:25;;;;;;;4.33;3.93;;;31.70;94.00;;;;;;5075267;28;20750;-65
2021/09/25 08:49:50;;;;;;;3.90;3.60;;;31.60;93.50;;;;;;5075974;28;20567;-64
2021/09/25 08:52:17;;;;;;;3.87;3.57;;;31.30;93.50;;;;;;5074852;28;20441;-64
2021/09/25 08:54:43;;;;;;;4.30;3.90;;;30.70;92.80;;;;;;5075867;28;20296;-64
2021/09/25 08:57:09;;;;;;;5.60;3.97;;;30.10;93.70;;;;;;5074795;28;20744;-64
2021/09/25 08:59:35;;;;;;;3.93;3.60;;;29.50;93.70;;;;;;5074493;28;20449;-64
2021/09/25 09:02:18;;;;;;;4.57;3.70;;;28.90;94.30;;;;;;5076130;28;20188;-64
2021/09/25 09:04:49;;;;;;;4.00;3.70;;;28.40;94.70;;;;;;5075615;28;20469;-63
2021/09/25 09:07:20;;;;;;;3.67;3.37;;;27.90;95.20;;;;;;5075814;28;20409;-63
2021/09/25 09:09:47;;;;;;;4.27;3.73;;;27.50;95.40;;;;;;5074341;28;20442;-64
2021/09/25 09:12:19;;;;;;;4.07;3.77;;;27.20;95.60;;;;;;5074336;28;20542;-64
2021/09/25 09:14:47;;;;;;;3.83;3.43;;;26.80;96.00;;;;;;5073430;28;20463;-65
2021/09/25 09:17:14;;;;;;;6.03;4.60;;;26.50;96.40;;;;;;5073646;28;20471;-62
2021/09/25 09:19:40;;;;;;;3.73;3.33;;;26.20;96.70;;;;;;5075361;28;20493;-62
2021/09/25 09:22:06;;;;;;;4.00;3.70;;;26.00;96.90;;;;;;5075846;28;20512;-62
2021/09/25 09:24:46;;;;;;;4.40;4.00;;;25.80;97.30;;;;;;5073901;28;20231;-63
2021/09/25 09:27:20;;;;;;;4.07;3.77;;;25.60;97.50;;;;;;5075432;28;20612;-62
2021/09/25 09:29:46;;;;;;;3.57;3.27;;;25.50;97.50;;;;;;5075176;28;20436;-62
2021/09/25 09:32:12;;;;;;;3.63;3.33;;;25.30;97.70;;;;;;5074003;28;20929;-63
2021/09/25 09:34:40;;;;;;;6.20;3.80;;;25.20;97.80;;;;;;5072003;28;20675;-62
2021/09/25 09:37:18;;;;;;;4.07;3.63;;;25.10;97.90;;;;;;5073215;28;20946;-63
2021/09/25 09:39:57;;;;;;;4.07;3.70;;;25.00;98.40;;;;;;5072793;28;20442;-62
2021/09/25 09:42:23;;;;;;;3.77;3.47;;;24.90;98.70;;;;;;5069240;28;20424;-62
2021/09/25 09:44:51;;;;;;;3.67;3.37;;;24.90;98.60;;;;;;5054184;28;20617;-62
2021/09/25 09:47:21;;;;;;;5.60;3.53;;;24.80;98.50;;;;;;5073282;28;20183;-62
2021/09/25 09:49:55;;;;;;;4.13;3.73;;;24.70;98.60;;;;;;5073236;28;20457;-62
2021/09/25 09:52:20;;;;;;;3.80;3.50;;;24.60;98.70;;;;;;5072529;28;20417;-62
2021/09/25 09:54:47;;;;;;;3.73;3.43;;;24.60;98.70;;;;;;5064327;28;20804;-62
2021/09/25 09:57:17;;;;;;;3.63;3.33;;;24.60;99.00;;;;;;5080399;28;20620;-62
2021/09/25 09:59:44;;;;;;;3.90;3.47;;;24.50;98.80;;;;;;5078274;28;20448;-62
2021/09/25 10:02:09;;;;;;;4.27;3.53;;;24.50;98.90;;;;;;5080154;28;20771;-62
2021/09/25 10:04:36;;;;;;;4.90;3.73;;;24.40;99.00;;;;;;5074642;28;20466;-63
2021/09/25 10:07:02;;;;;;;3.50;3.20;;;24.40;99.20;;;;;;5056608;28;20423;-62
2021/09/25 10:09:30;;;;;;;3.77;3.40;;;24.40;99.10;;;;;;5074211;28;20497;-63
2021/09/25 10:12:05;;;;;;;3.73;3.40;;;24.30;99.20;;;;;;5078814;28;20858;-62
2021/09/25 10:14:32;;;;;;;3.83;3.40;;;24.30;99.40;;;;;;5087256;28;20901;-62
2021/09/25 10:17:00;;;;;;;3.97;3.50;;;24.30;99.40;;;;;;5082368;28;21042;-62
2021/09/25 10:19:32;;;;;;;3.73;3.33;;;24.30;99.70;;;;;;5085593;28;20955;-62
2021/09/25 10:22:07;;;;;;;3.43;3.13;;;24.20;99.60;;;;;;5085116;28;20900;-62
2021/09/25 10:24:51;;;;;;;4.03;3.73;;;24.30;99.50;;;;;;5091443;28;21047;-62
2021/09/25 10:27:17;;;;;;;3.60;3.17;;;24.20;99.40;;;;;;5086475;28;20438;-63
2021/09/25 10:29:45;;;;;;;4.63;3.70;;;24.20;99.80;;;;;;5070985;28;20449;-62
2021/09/25 10:32:31;;;;;;;4.73;3.97;;;24.30;99.70;;;;;;5061521;28;20426;-62
2021/09/25 10:35:17;;;;;;;4.30;3.90;;;24.30;99.80;;;;;;5071761;28;21033;-62
2021/09/25 10:37:55;;;;;;;3.40;3.10;;;24.30;99.60;;;;;;5069844;28;20440;-62
2021/09/25 10:40:23;;;;;;;4.80;3.67;;;24.30;99.30;;;;;;5082360;28;20441;-62
2021/09/25 10:42:57;;;;;;;5.80;4.13;;;24.30;99.40;;;;;;5113833;28;20759;-62
2021/09/25 10:45:26;;;;;;;3.37;3.10;;;24.30;99.20;;;;;;5103490;28;20446;-62
2021/09/25 10:48:15;;;;;;;4.37;3.97;;;24.30;99.30;;;;;;5093811;28;20416;-62
2021/09/25 10:50:49;;;;;;;4.80;4.27;;;24.40;99.50;;;;;;5093846;28;20822;-63
2021/09/25 10:53:18;;;;;;;4.40;3.80;;;24.40;99.50;;;;;;5094053;28;20421;-62
2021/09/25 10:55:45;;;;;;;4.13;3.43;;;24.40;99.60;;;;;;5092958;28;20423;-64
2021/09/25 10:58:23;;;;;;;4.70;3.47;;;24.40;99.40;;;;;;5093548;28;20810;-62
2021/09/25 11:01:12;;;;;;;3.90;3.50;;;24.40;99.10;;;;;;5093560;28;20497;-62
2021/09/25 11:06:06;;;;;;;4.20;3.80;;;24.40;99.10;;;;;;5093856;28;20423;-62
2021/09/25 11:08:33;;;;;;;3.57;3.27;;;24.40;99.30;;;;;;5093509;28;20421;-62
2021/09/25 11:11:07;;;;;;;3.80;3.40;;;24.40;99.00;;;;;;5075494;28;20176;-62
2021/09/25 11:14:01;;;;;;;4.20;3.80;;;24.40;99.10;;;;;;5094522;28;20456;-62
2021/09/25 11:16:56;;;;;;;3.60;3.30;;;24.40;98.60;;;;;;5072170;28;20493;-62
2021/09/25 11:19:22;;;;;;;3.53;3.23;;;24.40;98.40;;;;;;5071747;28;20444;-62
2021/09/25 11:21:49;;;;;;;3.10;2.90;;;24.30;98.30;;;;;;5050200;28;20433;-62
2021/09/25 11:24:17;;;;;;;3.17;2.97;;;24.40;98.90;;;;;;5053301;28;20657;-62
2021/09/25 11:26:42;;;;;;;3.80;3.40;;;24.30;98.40;;;;;;5052266;28;20769;-62
2021/09/25 11:29:09;;;;;;;3.57;3.27;;;24.40;99.00;;;;;;5053358;28;20505;-62
2021/09/25 11:31:36;;;;;;;3.63;3.00;;;24.40;99.10;;;;;;5053673;28;20228;-62
2021/09/25 11:34:03;;;;;;;4.17;3.50;;;24.50;98.90;;;;;;5052164;28;20474;-62
2021/09/25 11:36:29;;;;;;;3.83;3.40;;;24.50;98.60;;;;;;5055439;28;20420;-62
2021/09/25 11:38:55;;;;;;;4.13;3.70;;;24.60;98.70;;;;;;5065524;28;20455;-62
2021/09/25 11:41:20;;;;;;;4.20;3.80;;;24.60;98.70;;;;;;5072620;28;20976;-62
2021/09/25 11:43:56;;;;;;;3.97;3.57;;;24.60;98.60;;;;;;5058468;28;20259;-62
2021/09/25 11:46:26;;;;;;;4.20;3.80;;;24.60;98.30;;;;;;5059212;28;20185;-62
2021/09/25 11:48:59;;;;;;;4.60;4.20;;;24.70;98.50;;;;;;5065435;28;20435;-62
2021/09/25 11:51:25;;;;;;;4.03;3.63;;;24.70;98.30;;;;;;5059862;28;20434;-63
2021/09/25 11:53:56;;;;;;;3.47;3.17;;;24.60;98.50;;;;;;5072154;28;20451;-63
2021/09/25 11:56:31;;;;;;;3.73;3.43;;;24.70;98.10;;;;;;5077322;28;20185;-62
2021/09/25 11:59:00;;;;;;;3.90;3.60;;;24.70;98.30;;;;;;5075724;28;20518;-62
2021/09/25 12:01:26;;;;;;;3.60;3.30;;;24.70;98.20;;;;;;5073300;28;20434;-62
2021/09/25 12:03:52;;;;;;;3.97;3.67;;;24.70;98.10;;;;;;5076294;28;20474;-63
2021/09/25 12:06:17;;;;;;;3.93;3.60;;;24.70;97.90;;;;;;5075737;28;20438;-63
2021/09/25 12:08:48;;;;;;;3.40;3.13;;;24.70;97.90;;;;;;5075525;28;20202;-62
2021/09/25 12:11:14;;;;;;;3.27;2.97;;;24.70;98.30;;;;;;5075220;28;20190;-63
2021/09/25 12:13:44;;;;;;;3.93;3.57;;;24.70;98.10;;;;;;5075247;28;20989;-63
2021/09/25 12:16:15;;;;;;;3.47;3.17;;;24.80;98.20;;;;;;5079625;28;20254;-63
2021/09/25 12:18:43;;;;;;;3.63;3.23;;;24.80;98.10;;;;;;5096138;28;20478;-62
2021/09/25 12:21:14;;;;;;;4.17;3.80;;;24.80;98.00;;;;;;5107869;28;20454;-62
2021/09/25 12:24:02;;;;;;;3.73;3.43;;;24.80;97.80;;;;;;5111765;28;20500;-63
2021/09/25 12:26:30;;;;;;;3.47;3.17;;;24.70;97.50;;;;;;5091836;28;20441;-63
2021/09/25 12:28:58;;;;;;;5.43;3.30;;;24.80;97.90;;;;;;5094978;28;20426;-62
2021/09/25 12:31:39;;;;;;;3.77;3.47;;;24.80;97.80;;;;;;5096437;28;20453;-63
2021/09/25 12:34:13;;;;;;;3.80;3.40;;;24.90;97.90;;;;;;5094584;28;20441;-63
2021/09/25 12:36:42;;;;;;;4.03;3.40;;;24.90;97.70;;;;;;5085720;28;20515;-63
2021/09/25 12:39:16;;;;;;;3.80;3.50;;;24.90;97.90;;;;;;5064170;28;20442;-64
2021/09/25 12:41:48;;;;;;;3.80;3.50;;;24.90;97.70;;;;;;5107069;28;20441;-63
2021/09/25 12:44:17;;;;;;;4.30;3.60;;;24.90;97.70;;;;;;5115244;28;20472;-65
2021/09/25 12:46:58;;;;;;;3.77;3.47;;;25.00;97.80;;;;;;5112859;28;20744;-64
2021/09/25 12:49:25;;;;;;;4.00;3.70;;;25.00;97.70;;;;;;5112691;28;20956;-64